sensor_id;sensor_type;location;lat;lon;timestamp;P1;durP1;ratioP1;P2;durP2;ratioP2
40489;SDS011;26196;52.302;10.572;2022-12-07T00:00:15;4.00;;;3.38;;
40489;SDS011;26196;52.302;10.572;2022-12-07T00:04:16;5.18;;;3.45;;
40489;SDS011;26196;52.302;10.572;2022-12-07T00:08:17;5.25;;;3.50;;
40489;SDS011;26196;52.302;10.572;2022-12-07T00:12:18;3.60;;;2.83;;
40489;SDS011;26196;52.302;10.572;2022-12-07T00:16:19;5.03;;;3.50;;
40489;SDS011;26196;52.302;10.572;2022-12-07T00:20:21;5.35;;;3.95;;
40489;SDS011;26196;52.302;10.572;2022-12-07T00:24:22;4.70;;;3.38;;
40489;SDS011;26196;52.302;10.572;2022-12-07T00:28:22;4.90;;;3.55;;
40489;SDS011;26196;52.302;10.572;2022-12-07T00:32:22;6.32;;;4.30;;
40489;SDS011;26196;52.302;10.572;2022-12-07T00:36:23;5.22;;;4.72;;
40489;SDS011;26196;52.302;10.572;2022-12-07T00:40:24;4.25;;;3.60;;
40489;SDS011;26196;52.302;10.572;2022-12-07T00:44:25;5.40;;;3.85;;
40489;SDS011;26196;52.302;10.572;2022-12-07T00:48:26;4.57;;;3.80;;
40489;SDS011;26196;52.302;10.572;2022-12-07T00:52:26;4.63;;;3.42;;
40489;SDS011;26196;52.302;10.572;2022-12-07T00:56:27;5.47;;;4.00;;
40489;SDS011;26196;52.302;10.572;2022-12-07T01:00:29;5.82;;;4.32;;
40489;SDS011;26196;52.302;10.572;2022-12-07T01:04:30;4.75;;;3.53;;
40489;SDS011;26196;52.302;10.572;2022-12-07T01:08:33;6.85;;;4.25;;
40489;SDS011;26196;52.302;10.572;2022-12-07T01:12:34;6.13;;;4.13;;
40489;SDS011;26196;52.302;10.572;2022-12-07T01:16:34;6.43;;;4.15;;
40489;SDS011;26196;52.302;10.572;2022-12-07T01:20:35;6.55;;;4.55;;
40489;SDS011;26196;52.302;10.572;2022-12-07T01:24:35;6.90;;;5.22;;
40489;SDS011;26196;52.302;10.572;2022-12-07T01:28:36;4.85;;;3.95;;
40489;SDS011;26196;52.302;10.572;2022-12-07T01:32:37;7.32;;;4.78;;
40489;SDS011;26196;52.302;10.572;2022-12-07T01:36:37;6.07;;;4.93;;
40489;SDS011;26196;52.302;10.572;2022-12-07T01:40:37;10.50;;;4.97;;
40489;SDS011;26196;52.302;10.572;2022-12-07T01:53:47;6.60;;;5.22;;
40489;SDS011;26196;52.302;10.572;2022-12-07T01:57:49;5.75;;;4.35;;
40489;SDS011;26196;52.302;10.572;2022-12-07T02:01:52;6.38;;;4.78;;
40489;SDS011;26196;52.302;10.572;2022-12-07T02:05:54;8.48;;;5.55;;
40489;SDS011;26196;52.302;10.572;2022-12-07T02:09:55;6.85;;;4.68;;
40489;SDS011;26196;52.302;10.572;2022-12-07T02:13:56;6.38;;;5.25;;
40489;SDS011;26196;52.302;10.572;2022-12-07T02:22:39;6.43;;;4.30;;
40489;SDS011;26196;52.302;10.572;2022-12-07T02:30:44;8.57;;;5.73;;
40489;SDS011;26196;52.302;10.572;2022-12-07T02:34:51;8.05;;;5.28;;
40489;SDS011;26196;52.302;10.572;2022-12-07T02:39:00;7.85;;;6.05;;
40489;SDS011;26196;52.302;10.572;2022-12-07T02:43:12;9.43;;;6.22;;
40489;SDS011;26196;52.302;10.572;2022-12-07T02:47:17;6.82;;;5.43;;
40489;SDS011;26196;52.302;10.572;2022-12-07T02:51:21;8.13;;;5.63;;
40489;SDS011;26196;52.302;10.572;2022-12-07T02:55:24;6.40;;;5.05;;
40489;SDS011;26196;52.302;10.572;2022-12-07T03:03:34;5.35;;;4.13;;
40489;SDS011;26196;52.302;10.572;2022-12-07T03:12:21;7.20;;;4.57;;
40489;SDS011;26196;52.302;10.572;2022-12-07T03:16:30;6.43;;;4.72;;
40489;SDS011;26196;52.302;10.572;2022-12-07T03:20:35;6.18;;;4.55;;
40489;SDS011;26196;52.302;10.572;2022-12-07T03:24:51;6.82;;;4.88;;
40489;SDS011;26196;52.302;10.572;2022-12-07T03:28:56;7.20;;;4.30;;
40489;SDS011;26196;52.302;10.572;2022-12-07T03:33:02;6.37;;;4.60;;
40489;SDS011;26196;52.302;10.572;2022-12-07T03:37:15;6.88;;;5.03;;
40489;SDS011;26196;52.302;10.572;2022-12-07T03:41:24;5.60;;;4.72;;
40489;SDS011;26196;52.302;10.572;2022-12-07T03:45:31;8.18;;;5.20;;
40489;SDS011;26196;52.302;10.572;2022-12-07T03:49:54;5.57;;;4.25;;
40489;SDS011;26196;52.302;10.572;2022-12-07T03:54:00;5.50;;;4.32;;
40489;SDS011;26196;52.302;10.572;2022-12-07T03:58:10;5.30;;;4.35;;
40489;SDS011;26196;52.302;10.572;2022-12-07T04:02:13;7.65;;;4.85;;
40489;SDS011;26196;52.302;10.572;2022-12-07T04:06:14;7.13;;;5.10;;
40489;SDS011;26196;52.302;10.572;2022-12-07T04:10:14;4.70;;;3.92;;
40489;SDS011;26196;52.302;10.572;2022-12-07T04:14:14;4.55;;;3.88;;
40489;SDS011;26196;52.302;10.572;2022-12-07T04:22:21;4.60;;;3.65;;
40489;SDS011;26196;52.302;10.572;2022-12-07T04:26:21;6.82;;;3.90;;
40489;SDS011;26196;52.302;10.572;2022-12-07T04:30:22;5.30;;;4.30;;
40489;SDS011;26196;52.302;10.572;2022-12-07T04:34:22;5.75;;;4.60;;
40489;SDS011;26196;52.302;10.572;2022-12-07T04:38:22;4.65;;;4.05;;
40489;SDS011;26196;52.302;10.572;2022-12-07T04:42:23;4.70;;;3.75;;
40489;SDS011;26196;52.302;10.572;2022-12-07T04:46:24;5.22;;;3.78;;
40489;SDS011;26196;52.302;10.572;2022-12-07T04:50:25;6.38;;;4.15;;
40489;SDS011;26196;52.302;10.572;2022-12-07T04:54:25;10.48;;;5.68;;
40489;SDS011;26196;52.302;10.572;2022-12-07T04:58:26;5.78;;;4.28;;
40489;SDS011;26196;52.302;10.572;2022-12-07T05:02:26;7.40;;;4.40;;
40489;SDS011;26196;52.302;10.572;2022-12-07T05:06:27;5.13;;;3.53;;
40489;SDS011;26196;52.302;10.572;2022-12-07T05:10:27;4.50;;;3.97;;
40489;SDS011;26196;52.302;10.572;2022-12-07T05:14:27;4.43;;;3.60;;
40489;SDS011;26196;52.302;10.572;2022-12-07T05:18:31;4.38;;;3.40;;
40489;SDS011;26196;52.302;10.572;2022-12-07T05:22:31;5.47;;;3.43;;
40489;SDS011;26196;52.302;10.572;2022-12-07T05:26:31;7.75;;;3.58;;
40489;SDS011;26196;52.302;10.572;2022-12-07T05:30:32;5.72;;;3.90;;
40489;SDS011;26196;52.302;10.572;2022-12-07T05:34:33;6.63;;;3.25;;
40489;SDS011;26196;52.302;10.572;2022-12-07T05:38:33;5.05;;;3.63;;
40489;SDS011;26196;52.302;10.572;2022-12-07T05:42:34;6.15;;;3.50;;
40489;SDS011;26196;52.302;10.572;2022-12-07T05:46:34;4.70;;;3.25;;
40489;SDS011;26196;52.302;10.572;2022-12-07T05:50:35;5.85;;;3.20;;
40489;SDS011;26196;52.302;10.572;2022-12-07T05:54:35;6.25;;;4.40;;
40489;SDS011;26196;52.302;10.572;2022-12-07T05:58:36;4.88;;;3.22;;
40489;SDS011;26196;52.302;10.572;2022-12-07T06:02:54;5.03;;;3.33;;
40489;SDS011;26196;52.302;10.572;2022-12-07T06:06:55;5.38;;;3.08;;
40489;SDS011;26196;52.302;10.572;2022-12-07T06:10:55;5.85;;;3.65;;
40489;SDS011;26196;52.302;10.572;2022-12-07T06:15:14;4.50;;;3.60;;
40489;SDS011;26196;52.302;10.572;2022-12-07T06:19:15;6.07;;;3.55;;
40489;SDS011;26196;52.302;10.572;2022-12-07T06:23:15;5.57;;;4.05;;
40489;SDS011;26196;52.302;10.572;2022-12-07T06:27:16;7.67;;;3.60;;
40489;SDS011;26196;52.302;10.572;2022-12-07T06:31:17;8.65;;;3.78;;
40489;SDS011;26196;52.302;10.572;2022-12-07T06:35:17;14.57;;;4.72;;
40489;SDS011;26196;52.302;10.572;2022-12-07T06:39:18;5.33;;;2.50;;
40489;SDS011;26196;52.302;10.572;2022-12-07T06:43:19;5.05;;;1.90;;
40489;SDS011;26196;52.302;10.572;2022-12-07T06:47:19;5.37;;;1.60;;
40489;SDS011;26196;52.302;10.572;2022-12-07T06:51:20;3.40;;;1.10;;
40489;SDS011;26196;52.302;10.572;2022-12-07T06:55:20;4.43;;;1.35;;
40489;SDS011;26196;52.302;10.572;2022-12-07T06:59:21;1.53;;;0.97;;
40489;SDS011;26196;52.302;10.572;2022-12-07T07:03:21;2.08;;;0.93;;
40489;SDS011;26196;52.302;10.572;2022-12-07T07:07:22;1.92;;;0.90;;
40489;SDS011;26196;52.302;10.572;2022-12-07T07:11:22;2.80;;;1.50;;
40489;SDS011;26196;52.302;10.572;2022-12-07T07:15:22;4.13;;;1.67;;
40489;SDS011;26196;52.302;10.572;2022-12-07T07:19:23;2.10;;;1.53;;
40489;SDS011;26196;52.302;10.572;2022-12-07T07:23:23;5.18;;;2.90;;
40489;SDS011;26196;52.302;10.572;2022-12-07T07:27:24;3.33;;;1.58;;
40489;SDS011;26196;52.302;10.572;2022-12-07T07:31:24;3.83;;;1.80;;
40489;SDS011;26196;52.302;10.572;2022-12-07T07:35:25;3.00;;;1.70;;
40489;SDS011;26196;52.302;10.572;2022-12-07T07:39:26;3.15;;;2.20;;
40489;SDS011;26196;52.302;10.572;2022-12-07T07:43:27;3.43;;;2.13;;
40489;SDS011;26196;52.302;10.572;2022-12-07T07:47:27;2.97;;;1.80;;
40489;SDS011;26196;52.302;10.572;2022-12-07T07:51:29;4.55;;;1.92;;
40489;SDS011;26196;52.302;10.572;2022-12-07T07:55:29;1.88;;;1.30;;
40489;SDS011;26196;52.302;10.572;2022-12-07T07:59:29;2.78;;;2.13;;
40489;SDS011;26196;52.302;10.572;2022-12-07T08:03:30;4.00;;;2.08;;
40489;SDS011;26196;52.302;10.572;2022-12-07T08:07:30;4.53;;;2.57;;
40489;SDS011;26196;52.302;10.572;2022-12-07T08:11:31;3.65;;;2.15;;
40489;SDS011;26196;52.302;10.572;2022-12-07T08:15:31;4.43;;;2.17;;
40489;SDS011;26196;52.302;10.572;2022-12-07T08:19:31;4.30;;;2.15;;
40489;SDS011;26196;52.302;10.572;2022-12-07T08:23:32;4.30;;;1.70;;
40489;SDS011;26196;52.302;10.572;2022-12-07T08:27:34;3.20;;;1.63;;
40489;SDS011;26196;52.302;10.572;2022-12-07T08:31:34;3.28;;;1.65;;
40489;SDS011;26196;52.302;10.572;2022-12-07T08:35:35;4.55;;;1.60;;
40489;SDS011;26196;52.302;10.572;2022-12-07T08:39:35;3.58;;;2.08;;
40489;SDS011;26196;52.302;10.572;2022-12-07T08:43:36;4.70;;;1.60;;
40489;SDS011;26196;52.302;10.572;2022-12-07T08:47:50;2.20;;;1.30;;
40489;SDS011;26196;52.302;10.572;2022-12-07T08:51:55;1.88;;;1.38;;
40489;SDS011;26196;52.302;10.572;2022-12-07T08:55:55;1.92;;;1.05;;
40489;SDS011;26196;52.302;10.572;2022-12-07T08:59:57;3.05;;;1.60;;
40489;SDS011;26196;52.302;10.572;2022-12-07T09:03:57;3.30;;;1.05;;
40489;SDS011;26196;52.302;10.572;2022-12-07T09:07:59;2.88;;;0.98;;
40489;SDS011;26196;52.302;10.572;2022-12-07T09:12:01;2.17;;;1.40;;
40489;SDS011;26196;52.302;10.572;2022-12-07T09:16:01;2.75;;;1.63;;
40489;SDS011;26196;52.302;10.572;2022-12-07T09:20:02;1.83;;;1.15;;
40489;SDS011;26196;52.302;10.572;2022-12-07T09:24:04;2.72;;;0.98;;
40489;SDS011;26196;52.302;10.572;2022-12-07T09:28:04;3.60;;;1.77;;
40489;SDS011;26196;52.302;10.572;2022-12-07T09:32:05;2.55;;;0.85;;
40489;SDS011;26196;52.302;10.572;2022-12-07T09:36:05;4.50;;;1.10;;
40489;SDS011;26196;52.302;10.572;2022-12-07T09:40:06;1.55;;;0.85;;
40489;SDS011;26196;52.302;10.572;2022-12-07T09:44:11;1.85;;;0.80;;
40489;SDS011;26196;52.302;10.572;2022-12-07T09:48:18;1.05;;;0.63;;
40489;SDS011;26196;52.302;10.572;2022-12-07T09:52:28;1.83;;;0.93;;
40489;SDS011;26196;52.302;10.572;2022-12-07T09:56:30;2.05;;;1.60;;
40489;SDS011;26196;52.302;10.572;2022-12-07T10:00:31;1.88;;;1.00;;
40489;SDS011;26196;52.302;10.572;2022-12-07T10:04:31;3.30;;;1.55;;
40489;SDS011;26196;52.302;10.572;2022-12-07T10:08:31;4.55;;;1.20;;
40489;SDS011;26196;52.302;10.572;2022-12-07T10:12:44;3.30;;;0.85;;
40489;SDS011;26196;52.302;10.572;2022-12-07T10:16:57;2.05;;;0.88;;
40489;SDS011;26196;52.302;10.572;2022-12-07T10:25:08;1.48;;;0.50;;
40489;SDS011;26196;52.302;10.572;2022-12-07T10:29:19;2.22;;;0.80;;
40489;SDS011;26196;52.302;10.572;2022-12-07T10:37:36;3.33;;;0.57;;
40489;SDS011;26196;52.302;10.572;2022-12-07T10:55:23;3.53;;;0.98;;
40489;SDS011;26196;52.302;10.572;2022-12-07T10:59:41;2.08;;;1.02;;
40489;SDS011;26196;52.302;10.572;2022-12-07T11:12:42;3.85;;;2.38;;
40489;SDS011;26196;52.302;10.572;2022-12-07T11:25:32;3.92;;;2.53;;
40489;SDS011;26196;52.302;10.572;2022-12-07T11:29:47;4.18;;;2.65;;
40489;SDS011;26196;52.302;10.572;2022-12-07T11:34:09;3.60;;;2.53;;
40489;SDS011;26196;52.302;10.572;2022-12-07T11:38:53;4.03;;;2.13;;
40489;SDS011;26196;52.302;10.572;2022-12-07T11:47:17;2.30;;;2.10;;
40489;SDS011;26196;52.302;10.572;2022-12-07T11:51:26;2.10;;;1.92;;
40489;SDS011;26196;52.302;10.572;2022-12-07T11:59:43;6.45;;;2.70;;
40489;SDS011;26196;52.302;10.572;2022-12-07T12:03:51;3.63;;;2.22;;
40489;SDS011;26196;52.302;10.572;2022-12-07T12:08:13;2.88;;;1.88;;
40489;SDS011;26196;52.302;10.572;2022-12-07T12:12:17;2.60;;;1.52;;
40489;SDS011;26196;52.302;10.572;2022-12-07T12:20:45;5.55;;;2.85;;
40489;SDS011;26196;52.302;10.572;2022-12-07T12:24:50;3.10;;;2.00;;
40489;SDS011;26196;52.302;10.572;2022-12-07T12:33:26;1.75;;;1.20;;
40489;SDS011;26196;52.302;10.572;2022-12-07T12:45:48;3.00;;;1.10;;
40489;SDS011;26196;52.302;10.572;2022-12-07T12:55:00;2.60;;;0.80;;
40489;SDS011;26196;52.302;10.572;2022-12-07T12:59:22;2.58;;;0.60;;
40489;SDS011;26196;52.302;10.572;2022-12-07T13:03:29;1.50;;;0.60;;
40489;SDS011;26196;52.302;10.572;2022-12-07T13:11:47;2.55;;;0.80;;
40489;SDS011;26196;52.302;10.572;2022-12-07T13:23:55;2.10;;;0.60;;
40489;SDS011;26196;52.302;10.572;2022-12-07T13:28:17;2.28;;;0.38;;
40489;SDS011;26196;52.302;10.572;2022-12-07T13:32:23;1.42;;;0.40;;
40489;SDS011;26196;52.302;10.572;2022-12-07T13:36:38;1.20;;;0.57;;
40489;SDS011;26196;52.302;10.572;2022-12-07T13:40:39;4.03;;;1.02;;
40489;SDS011;26196;52.302;10.572;2022-12-07T13:44:40;4.47;;;2.40;;
40489;SDS011;26196;52.302;10.572;2022-12-07T13:48:43;12.02;;;4.13;;
40489;SDS011;26196;52.302;10.572;2022-12-07T13:52:46;11.23;;;5.53;;
40489;SDS011;26196;52.302;10.572;2022-12-07T13:56:51;9.02;;;5.40;;
40489;SDS011;26196;52.302;10.572;2022-12-07T14:00:52;12.20;;;5.60;;
40489;SDS011;26196;52.302;10.572;2022-12-07T14:05:05;12.85;;;5.00;;
40489;SDS011;26196;52.302;10.572;2022-12-07T14:09:24;8.93;;;4.50;;
40489;SDS011;26196;52.302;10.572;2022-12-07T14:17:51;8.60;;;4.00;;
40489;SDS011;26196;52.302;10.572;2022-12-07T14:22:08;8.45;;;3.40;;
40489;SDS011;26196;52.302;10.572;2022-12-07T14:26:21;8.50;;;3.22;;
40489;SDS011;26196;52.302;10.572;2022-12-07T14:30:23;7.68;;;2.92;;
40489;SDS011;26196;52.302;10.572;2022-12-07T14:34:28;5.80;;;2.70;;
40489;SDS011;26196;52.302;10.572;2022-12-07T14:38:28;7.55;;;3.90;;
40489;SDS011;26196;52.302;10.572;2022-12-07T14:42:29;7.95;;;3.78;;
40489;SDS011;26196;52.302;10.572;2022-12-07T14:46:31;6.60;;;2.85;;
40489;SDS011;26196;52.302;10.572;2022-12-07T14:50:32;8.32;;;2.42;;
40489;SDS011;26196;52.302;10.572;2022-12-07T14:54:36;6.13;;;3.03;;
40489;SDS011;26196;52.302;10.572;2022-12-07T14:58:37;5.60;;;2.17;;
40489;SDS011;26196;52.302;10.572;2022-12-07T15:02:37;5.10;;;2.17;;
40489;SDS011;26196;52.302;10.572;2022-12-07T15:06:37;7.57;;;2.65;;
40489;SDS011;26196;52.302;10.572;2022-12-07T15:10:38;5.97;;;2.67;;
40489;SDS011;26196;52.302;10.572;2022-12-07T15:14:40;13.77;;;4.88;;
40489;SDS011;26196;52.302;10.572;2022-12-07T15:18:40;6.40;;;2.22;;
40489;SDS011;26196;52.302;10.572;2022-12-07T15:22:40;7.18;;;2.53;;
40489;SDS011;26196;52.302;10.572;2022-12-07T15:26:41;10.25;;;3.00;;
40489;SDS011;26196;52.302;10.572;2022-12-07T15:30:42;6.22;;;2.22;;
40489;SDS011;26196;52.302;10.572;2022-12-07T15:34:43;4.63;;;2.53;;
40489;SDS011;26196;52.302;10.572;2022-12-07T15:38:44;5.63;;;2.60;;
40489;SDS011;26196;52.302;10.572;2022-12-07T15:42:44;5.75;;;2.63;;
40489;SDS011;26196;52.302;10.572;2022-12-07T15:46:45;6.10;;;2.22;;
40489;SDS011;26196;52.302;10.572;2022-12-07T15:50:45;4.22;;;2.13;;
40489;SDS011;26196;52.302;10.572;2022-12-07T15:54:45;3.13;;;1.60;;
40489;SDS011;26196;52.302;10.572;2022-12-07T15:58:47;6.40;;;1.55;;
40489;SDS011;26196;52.302;10.572;2022-12-07T16:02:47;4.05;;;1.85;;
40489;SDS011;26196;52.302;10.572;2022-12-07T16:06:48;2.17;;;1.13;;
40489;SDS011;26196;52.302;10.572;2022-12-07T16:10:49;3.35;;;1.13;;
40489;SDS011;26196;52.302;10.572;2022-12-07T16:14:50;3.20;;;1.97;;
40489;SDS011;26196;52.302;10.572;2022-12-07T16:18:50;4.13;;;1.40;;
40489;SDS011;26196;52.302;10.572;2022-12-07T16:22:51;3.42;;;1.40;;
40489;SDS011;26196;52.302;10.572;2022-12-07T16:26:53;3.90;;;1.50;;
40489;SDS011;26196;52.302;10.572;2022-12-07T16:30:59;4.68;;;1.40;;
40489;SDS011;26196;52.302;10.572;2022-12-07T16:35:01;1.52;;;0.80;;
40489;SDS011;26196;52.302;10.572;2022-12-07T16:39:01;3.10;;;0.85;;
40489;SDS011;26196;52.302;10.572;2022-12-07T16:43:03;2.38;;;0.80;;
40489;SDS011;26196;52.302;10.572;2022-12-07T16:47:03;3.17;;;1.02;;
40489;SDS011;26196;52.302;10.572;2022-12-07T16:51:04;1.88;;;0.88;;
40489;SDS011;26196;52.302;10.572;2022-12-07T16:55:06;1.40;;;0.70;;
40489;SDS011;26196;52.302;10.572;2022-12-07T16:59:07;2.47;;;0.82;;
40489;SDS011;26196;52.302;10.572;2022-12-07T17:03:08;1.05;;;0.50;;
40489;SDS011;26196;52.302;10.572;2022-12-07T17:07:09;1.67;;;1.17;;
40489;SDS011;26196;52.302;10.572;2022-12-07T17:11:10;3.10;;;0.70;;
40489;SDS011;26196;52.302;10.572;2022-12-07T17:15:12;1.75;;;0.90;;
40489;SDS011;26196;52.302;10.572;2022-12-07T17:19:20;6.10;;;1.65;;
40489;SDS011;26196;52.302;10.572;2022-12-07T17:23:21;4.80;;;2.10;;
40489;SDS011;26196;52.302;10.572;2022-12-07T17:27:21;5.45;;;1.95;;
40489;SDS011;26196;52.302;10.572;2022-12-07T17:31:22;2.53;;;1.52;;
40489;SDS011;26196;52.302;10.572;2022-12-07T17:35:23;3.20;;;1.95;;
40489;SDS011;26196;52.302;10.572;2022-12-07T17:39:23;2.63;;;1.43;;
40489;SDS011;26196;52.302;10.572;2022-12-07T17:43:24;2.88;;;1.30;;
40489;SDS011;26196;52.302;10.572;2022-12-07T17:47:25;3.08;;;1.40;;
40489;SDS011;26196;52.302;10.572;2022-12-07T17:51:25;2.60;;;1.10;;
40489;SDS011;26196;52.302;10.572;2022-12-07T17:55:44;6.20;;;1.25;;
40489;SDS011;26196;52.302;10.572;2022-12-07T17:59:45;2.40;;;1.35;;
40489;SDS011;26196;52.302;10.572;2022-12-07T18:03:45;6.50;;;1.67;;
40489;SDS011;26196;52.302;10.572;2022-12-07T18:07:46;2.30;;;1.43;;
40489;SDS011;26196;52.302;10.572;2022-12-07T18:11:46;1.73;;;1.20;;
40489;SDS011;26196;52.302;10.572;2022-12-07T18:15:47;4.75;;;1.50;;
40489;SDS011;26196;52.302;10.572;2022-12-07T18:19:48;4.30;;;1.80;;
40489;SDS011;26196;52.302;10.572;2022-12-07T18:23:49;3.85;;;1.83;;
40489;SDS011;26196;52.302;10.572;2022-12-07T18:27:52;2.15;;;1.60;;
40489;SDS011;26196;52.302;10.572;2022-12-07T18:31:52;4.50;;;1.75;;
40489;SDS011;26196;52.302;10.572;2022-12-07T18:35:53;4.30;;;2.45;;
40489;SDS011;26196;52.302;10.572;2022-12-07T18:39:53;9.15;;;4.55;;
40489;SDS011;26196;52.302;10.572;2022-12-07T18:43:54;9.93;;;6.07;;
40489;SDS011;26196;52.302;10.572;2022-12-07T18:47:55;8.00;;;3.65;;
40489;SDS011;26196;52.302;10.572;2022-12-07T18:51:55;5.73;;;2.90;;
40489;SDS011;26196;52.302;10.572;2022-12-07T18:56:03;5.00;;;2.70;;
40489;SDS011;26196;52.302;10.572;2022-12-07T19:00:04;4.20;;;2.75;;
40489;SDS011;26196;52.302;10.572;2022-12-07T19:04:05;5.68;;;2.25;;
40489;SDS011;26196;52.302;10.572;2022-12-07T19:08:06;3.97;;;1.52;;
40489;SDS011;26196;52.302;10.572;2022-12-07T19:12:08;4.10;;;1.75;;
40489;SDS011;26196;52.302;10.572;2022-12-07T19:16:11;2.90;;;1.67;;
40489;SDS011;26196;52.302;10.572;2022-12-07T19:20:12;6.50;;;1.80;;
40489;SDS011;26196;52.302;10.572;2022-12-07T19:24:14;2.33;;;1.25;;
40489;SDS011;26196;52.302;10.572;2022-12-07T19:28:15;2.42;;;1.30;;
40489;SDS011;26196;52.302;10.572;2022-12-07T19:32:15;3.33;;;1.35;;
40489;SDS011;26196;52.302;10.572;2022-12-07T19:36:17;3.38;;;1.40;;
40489;SDS011;26196;52.302;10.572;2022-12-07T19:40:17;1.93;;;1.03;;
40489;SDS011;26196;52.302;10.572;2022-12-07T19:44:19;2.88;;;1.20;;
40489;SDS011;26196;52.302;10.572;2022-12-07T19:48:22;2.83;;;1.33;;
40489;SDS011;26196;52.302;10.572;2022-12-07T19:52:22;3.23;;;1.47;;
40489;SDS011;26196;52.302;10.572;2022-12-07T19:56:23;3.80;;;1.35;;
40489;SDS011;26196;52.302;10.572;2022-12-07T20:00:25;2.13;;;1.20;;
40489;SDS011;26196;52.302;10.572;2022-12-07T20:04:26;2.90;;;1.40;;
40489;SDS011;26196;52.302;10.572;2022-12-07T20:08:28;2.50;;;1.63;;
40489;SDS011;26196;52.302;10.572;2022-12-07T20:12:28;6.28;;;2.90;;
40489;SDS011;26196;52.302;10.572;2022-12-07T20:16:47;7.47;;;2.92;;
40489;SDS011;26196;52.302;10.572;2022-12-07T20:20:55;6.80;;;3.03;;
40489;SDS011;26196;52.302;10.572;2022-12-07T20:24:57;6.65;;;3.10;;
40489;SDS011;26196;52.302;10.572;2022-12-07T20:28:57;5.13;;;3.03;;
40489;SDS011;26196;52.302;10.572;2022-12-07T20:32:57;5.07;;;2.60;;
40489;SDS011;26196;52.302;10.572;2022-12-07T20:36:58;4.93;;;2.40;;
40489;SDS011;26196;52.302;10.572;2022-12-07T20:41:02;3.90;;;2.25;;
40489;SDS011;26196;52.302;10.572;2022-12-07T20:45:04;7.20;;;3.17;;
40489;SDS011;26196;52.302;10.572;2022-12-07T20:49:07;6.35;;;2.42;;
40489;SDS011;26196;52.302;10.572;2022-12-07T20:53:09;3.70;;;2.20;;
40489;SDS011;26196;52.302;10.572;2022-12-07T20:57:09;4.28;;;2.88;;
40489;SDS011;26196;52.302;10.572;2022-12-07T21:01:10;3.38;;;1.75;;
40489;SDS011;26196;52.302;10.572;2022-12-07T21:05:10;4.05;;;2.50;;
40489;SDS011;26196;52.302;10.572;2022-12-07T21:09:11;3.70;;;2.15;;
40489;SDS011;26196;52.302;10.572;2022-12-07T21:13:12;2.83;;;1.73;;
40489;SDS011;26196;52.302;10.572;2022-12-07T21:17:12;3.17;;;1.60;;
40489;SDS011;26196;52.302;10.572;2022-12-07T21:21:13;2.92;;;1.75;;
40489;SDS011;26196;52.302;10.572;2022-12-07T21:25:15;3.03;;;1.70;;
40489;SDS011;26196;52.302;10.572;2022-12-07T21:29:16;2.67;;;1.90;;
40489;SDS011;26196;52.302;10.572;2022-12-07T21:33:16;2.47;;;1.63;;
40489;SDS011;26196;52.302;10.572;2022-12-07T21:37:17;4.82;;;1.52;;
40489;SDS011;26196;52.302;10.572;2022-12-07T21:41:38;3.97;;;1.83;;
40489;SDS011;26196;52.302;10.572;2022-12-07T21:45:38;3.38;;;1.83;;
40489;SDS011;26196;52.302;10.572;2022-12-07T21:49:38;3.65;;;1.65;;
40489;SDS011;26196;52.302;10.572;2022-12-07T21:53:39;3.17;;;2.17;;
40489;SDS011;26196;52.302;10.572;2022-12-07T21:57:41;3.00;;;1.88;;
40489;SDS011;26196;52.302;10.572;2022-12-07T22:01:42;5.00;;;2.17;;
40489;SDS011;26196;52.302;10.572;2022-12-07T22:05:45;4.22;;;1.98;;
40489;SDS011;26196;52.302;10.572;2022-12-07T22:09:46;4.93;;;2.67;;
40489;SDS011;26196;52.302;10.572;2022-12-07T22:13:46;2.60;;;1.77;;
40489;SDS011;26196;52.302;10.572;2022-12-07T22:18:06;3.75;;;2.15;;
40489;SDS011;26196;52.302;10.572;2022-12-07T22:22:07;2.53;;;1.63;;
40489;SDS011;26196;52.302;10.572;2022-12-07T22:26:12;3.20;;;1.98;;
40489;SDS011;26196;52.302;10.572;2022-12-07T22:30:14;4.57;;;2.10;;
40489;SDS011;26196;52.302;10.572;2022-12-07T22:34:15;2.65;;;1.77;;
40489;SDS011;26196;52.302;10.572;2022-12-07T22:38:16;3.03;;;1.90;;
40489;SDS011;26196;52.302;10.572;2022-12-07T22:42:17;2.58;;;1.40;;
40489;SDS011;26196;52.302;10.572;2022-12-07T22:46:17;3.47;;;1.67;;
40489;SDS011;26196;52.302;10.572;2022-12-07T22:50:18;3.20;;;1.67;;
40489;SDS011;26196;52.302;10.572;2022-12-07T22:54:18;4.35;;;2.03;;
40489;SDS011;26196;52.302;10.572;2022-12-07T22:58:18;2.83;;;1.60;;
40489;SDS011;26196;52.302;10.572;2022-12-07T23:02:19;2.00;;;1.30;;
40489;SDS011;26196;52.302;10.572;2022-12-07T23:06:23;4.57;;;1.90;;
40489;SDS011;26196;52.302;10.572;2022-12-07T23:10:28;2.45;;;1.73;;
40489;SDS011;26196;52.302;10.572;2022-12-07T23:18:30;2.65;;;1.70;;
40489;SDS011;26196;52.302;10.572;2022-12-07T23:22:31;2.08;;;1.35;;
40489;SDS011;26196;52.302;10.572;2022-12-07T23:26:31;2.05;;;1.10;;
40489;SDS011;26196;52.302;10.572;2022-12-07T23:30:31;1.98;;;1.50;;
40489;SDS011;26196;52.302;10.572;2022-12-07T23:34:32;1.70;;;1.13;;
40489;SDS011;26196;52.302;10.572;2022-12-07T23:38:32;3.25;;;1.30;;
40489;SDS011;26196;52.302;10.572;2022-12-07T23:42:32;3.90;;;1.52;;
40489;SDS011;26196;52.302;10.572;2022-12-07T23:46:33;2.00;;;1.30;;
40489;SDS011;26196;52.302;10.572;2022-12-07T23:50:33;1.85;;;1.15;;
40489;SDS011;26196;52.302;10.572;2022-12-07T23:54:34;1.73;;;1.33;;
40489;SDS011;26196;52.302;10.572;2022-12-07T23:58:34;1.60;;;1.00;;
